createdAt,value
2022-08-24T00:03:17.838Z,99963.19
2022-08-24T00:08:21.646Z,99962.44
2022-08-24T00:13:24.531Z,99956.44
2022-08-24T00:18:33.239Z,99944.75
2022-08-24T00:23:36.982Z,99955.13
2022-08-24T00:28:40.004Z,99938.25
2022-08-24T00:33:42.969Z,99945.69
2022-08-24T00:38:45.819Z,99941.19
2022-08-24T00:43:59.103Z,99945.56
2022-08-24T00:49:12.390Z,99942.25
2022-08-24T00:54:18.088Z,99955.47
2022-08-24T00:59:34.507Z,99957.34
2022-08-24T01:04:55.503Z,99955.25
2022-08-24T01:10:16.677Z,99954.44
2022-08-24T01:15:20.555Z,99949.13
2022-08-24T01:20:26.430Z,99945.31
2022-08-24T01:25:32.783Z,99962.47
2022-08-24T01:30:37.455Z,99962.03
2022-08-24T01:35:41.647Z,99961.19
2022-08-24T01:40:53.301Z,99966.56
2022-08-24T01:45:56.618Z,99978.16
2022-08-24T01:50:59.623Z,99983.16
2022-08-24T01:56:03.499Z,99987.50
2022-08-24T02:01:06.621Z,99983.97
2022-08-24T02:06:10.866Z,99986.28
2022-08-24T02:11:14.097Z,99997.47
2022-08-24T02:16:17.141Z,99986.09
2022-08-24T02:21:20.358Z,99986.94
2022-08-24T02:26:23.280Z,99999.56
2022-08-24T02:31:32.003Z,100002.72
2022-08-24T02:36:35.590Z,99997.75
2022-08-24T02:41:38.575Z,99998.34
2022-08-24T02:46:42.760Z,99996.72
2022-08-24T02:51:47.549Z,99987.66
2022-08-24T02:56:51.897Z,99975.31
2022-08-24T03:01:54.874Z,99981.75
2022-08-24T03:06:59.340Z,99976.78
2022-08-24T03:12:02.573Z,99988.34
2022-08-24T03:17:05.670Z,99978.06
2022-08-24T03:27:26.562Z,99979.31
2022-08-24T03:32:29.962Z,99983.66
2022-08-24T03:37:33.107Z,99989.22
2022-08-24T03:42:36.248Z,99991.31
2022-08-24T03:47:39.147Z,100002.47
2022-08-24T03:52:46.994Z,100003.28
2022-08-24T03:57:49.850Z,100004.75
2022-08-24T04:02:52.712Z,100019.00
2022-08-24T04:07:55.777Z,100020.88
2022-08-24T04:12:59.959Z,100023.53
2022-08-24T04:18:04.401Z,100020.03
2022-08-24T04:23:10.045Z,100003.94
2022-08-24T04:28:19.876Z,100005.56
2022-08-24T04:33:23.254Z,100004.94
2022-08-24T04:38:27.034Z,99997.03
2022-08-24T04:43:29.923Z,99995.13
2022-08-24T04:48:36.048Z,99994.84
2022-08-24T04:53:39.312Z,100000.38
2022-08-24T04:58:42.444Z,99996.22
2022-08-24T05:03:52.024Z,100008.13
2022-08-24T05:08:55.682Z,100002.03
2022-08-24T05:13:59.389Z,100005.81
2022-08-24T05:19:02.932Z,99997.03
2022-08-24T05:24:06.217Z,99995.47
2022-08-24T05:29:09.402Z,99999.28
2022-08-24T05:34:14.640Z,100001.31
2022-08-24T05:39:17.963Z,100000.63
2022-08-24T05:44:20.859Z,99998.00
2022-08-24T05:49:25.236Z,100007.47
2022-08-24T05:54:28.507Z,99988.84
2022-08-24T06:04:49.798Z,99991.97
2022-08-24T06:09:54.175Z,99992.97
2022-08-24T06:14:57.128Z,99989.47
2022-08-24T06:19:59.971Z,99988.38
2022-08-24T06:25:22.239Z,100000.13
2022-08-24T06:30:30.665Z,100015.38
2022-08-24T06:35:33.815Z,100014.88
2022-08-24T06:40:37.051Z,100013.84
2022-08-24T06:45:43.858Z,100005.97
2022-08-24T06:50:48.560Z,99999.75
2022-08-24T06:55:53.622Z,100017.56
2022-08-24T07:00:57.122Z,100018.97
2022-08-24T07:06:00.110Z,100029.00
2022-08-24T07:11:04.389Z,100033.06
2022-08-24T07:16:07.690Z,100048.50
2022-08-24T07:21:10.675Z,100052.84
2022-08-24T07:26:25.659Z,100049.50
2022-08-24T07:31:33.266Z,100059.94
2022-08-24T07:36:44.656Z,100072.69
2022-08-24T07:42:09.081Z,100070.44
2022-08-24T07:47:34.749Z,100066.25
2022-08-24T07:52:34.102Z,100072.41
2022-08-24T07:57:38.569Z,100077.56
2022-08-24T08:02:46.715Z,100075.47
2022-08-24T08:07:52.189Z,100076.41
2022-08-24T08:12:55.247Z,100073.75
2022-08-24T08:17:59.200Z,100072.81
2022-08-24T08:23:20.823Z,100073.47
2022-08-24T08:28:33.290Z,100075.47
2022-08-24T08:33:38.816Z,100078.00
2022-08-24T08:38:43.179Z,100081.88
2022-08-24T08:44:02.050Z,100075.97
2022-08-24T08:49:11.142Z,100083.44
2022-08-24T08:54:52.097Z,100085.00
2022-08-24T09:00:16.317Z,100083.72
2022-08-24T09:05:34.188Z,100076.47
2022-08-24T09:11:06.162Z,100083.66
2022-08-24T09:16:44.040Z,100073.41
2022-08-24T09:21:54.484Z,100080.06
2022-08-24T09:27:13.634Z,100068.75
2022-08-24T09:32:55.152Z,100068.81
2022-08-24T09:38:13.586Z,100064.56
2022-08-24T09:43:50.637Z,100060.75
2022-08-24T09:49:21.198Z,100058.59
2022-08-24T09:54:39.006Z,100053.19
2022-08-24T10:00:16.865Z,100048.13
2022-08-24T10:05:42.567Z,100046.00
2022-08-24T10:11:07.583Z,100045.47
2022-08-24T10:16:34.494Z,100031.94
2022-08-24T10:22:12.675Z,100040.38
2022-08-24T10:27:48.839Z,100048.03
2022-08-24T10:33:10.261Z,100048.28
2022-08-24T10:38:42.422Z,100052.59
2022-08-24T10:44:13.080Z,100065.00
2022-08-24T10:49:36.732Z,100080.19
2022-08-24T10:54:40.139Z,100080.13
2022-08-24T11:00:18.177Z,100109.00
2022-08-24T11:05:37.745Z,100109.06
2022-08-24T11:10:40.921Z,100114.31
2022-08-24T11:16:00.339Z,100105.41
2022-08-24T11:21:04.401Z,100119.53
2022-08-24T11:26:20.313Z,100120.78
2022-08-24T11:31:40.240Z,100120.75
2022-08-24T11:36:44.299Z,100111.50
2022-08-24T11:42:29.181Z,100106.34
2022-08-24T11:47:50.531Z,100109.44
2022-08-24T11:53:14.033Z,100113.25
2022-08-24T11:58:49.901Z,100108.66
2022-08-24T12:04:02.085Z,100106.19
2022-08-24T12:09:44.824Z,100102.22
2022-08-24T12:15:10.027Z,100112.47
2022-08-24T12:20:25.403Z,100123.25
2022-08-24T12:25:51.805Z,100115.13
2022-08-24T12:30:58.014Z,100121.97
2022-08-24T12:36:12.088Z,100121.00
2022-08-24T12:41:20.264Z,100104.09
2022-08-24T12:46:26.622Z,100093.59
2022-08-24T12:51:57.497Z,100075.44
2022-08-24T12:57:39.731Z,100070.00
2022-08-24T13:03:08.329Z,100065.81
2022-08-24T13:08:32.098Z,100069.41
2022-08-24T13:13:44.009Z,100076.66
2022-08-24T13:19:11.903Z,100068.59
2022-08-24T13:24:30.422Z,100077.88
2022-08-24T13:29:35.127Z,100085.69
2022-08-24T13:34:46.603Z,100095.91
2022-08-24T13:40:01.930Z,100093.16
2022-08-24T13:45:26.730Z,100095.56
2022-08-24T13:51:16.999Z,100085.22
2022-08-24T13:57:03.358Z,100092.84
2022-08-24T14:02:34.012Z,100095.78
2022-08-24T14:08:04.994Z,100098.69
2022-08-24T14:13:32.981Z,100083.91
2022-08-24T14:19:15.435Z,100090.34
2022-08-24T14:25:18.623Z,100099.00
2022-08-24T14:30:23.706Z,100087.91
2022-08-24T14:35:41.605Z,100086.31
2022-08-24T14:41:11.969Z,100093.13
2022-08-24T14:46:33.768Z,100102.06
2022-08-24T14:52:03.662Z,100094.75
2022-08-24T14:57:45.634Z,100088.78
2022-08-24T15:02:51.635Z,100095.50
2022-08-24T15:08:26.881Z,100100.63
2022-08-24T15:13:44.572Z,100101.19
2022-08-24T15:19:03.705Z,100107.75
2022-08-24T15:24:44.743Z,100105.34
2022-08-24T15:29:59.428Z,100101.81
2022-08-24T15:35:02.208Z,100108.31
2022-08-24T15:40:31.348Z,100098.53
2022-08-24T15:45:43.242Z,100099.63
2022-08-24T15:50:48.861Z,100084.44
2022-08-24T15:55:53.328Z,100084.94
2022-08-24T16:01:42.644Z,100078.63
2022-08-24T16:06:49.508Z,100078.06
2022-08-24T16:12:23.486Z,100078.13
2022-08-24T16:17:41.438Z,100080.31
2022-08-24T16:23:00.945Z,100070.03
2022-08-24T16:28:07.706Z,100071.69
2022-08-24T16:33:34.732Z,100068.22
2022-08-24T16:38:49.644Z,100068.72
2022-08-24T16:43:57.418Z,100073.59
2022-08-24T16:49:00.409Z,100081.97
2022-08-24T16:54:03.595Z,100083.78
2022-08-24T16:59:07.927Z,100094.56
2022-08-24T17:04:10.804Z,100097.31
2022-08-24T17:09:13.712Z,100094.44
2022-08-24T17:14:17.568Z,100091.75
2022-08-24T17:19:20.765Z,100104.09
2022-08-24T17:24:24.383Z,100107.19
2022-08-24T17:29:27.345Z,100111.97
2022-08-24T17:34:30.332Z,100111.31
2022-08-24T17:39:33.373Z,100125.25
2022-08-24T17:44:37.162Z,100121.28
2022-08-24T17:49:41.473Z,100134.72
2022-08-24T17:54:44.457Z,100134.06
2022-08-24T17:59:47.321Z,100139.88
2022-08-24T18:04:50.519Z,100147.63
2022-08-24T18:09:58.327Z,100143.91
2022-08-24T18:15:01.666Z,100142.53
2022-08-24T18:20:07.812Z,100147.59
2022-08-24T18:25:16.154Z,100157.00
2022-08-24T18:30:30.277Z,100171.00
2022-08-24T18:35:34.518Z,100162.47
2022-08-24T18:40:37.890Z,100167.19
2022-08-24T18:45:40.872Z,100157.75
2022-08-24T18:50:43.836Z,100164.69
2022-08-24T18:55:48.054Z,100170.47
2022-08-24T19:00:51.600Z,100176.25
2022-08-24T19:05:54.962Z,100177.53
2022-08-24T19:10:57.914Z,100187.66
2022-08-24T19:16:00.576Z,100186.72
2022-08-24T19:21:04.493Z,100180.63
2022-08-24T19:26:07.535Z,100173.09
2022-08-24T19:31:13.303Z,100170.50
2022-08-24T19:36:16.399Z,100171.44
2022-08-24T19:41:19.700Z,100184.00
2022-08-24T19:46:24.744Z,100187.19
2022-08-24T19:51:28.221Z,100193.53
2022-08-24T19:56:31.128Z,100190.81
2022-08-24T20:01:37.445Z,100200.41
2022-08-24T20:06:41.458Z,100199.69
2022-08-24T20:11:44.317Z,100195.56
2022-08-24T20:16:47.389Z,100195.91
2022-08-24T20:21:50.222Z,100202.69
2022-08-24T20:26:53.076Z,100196.34
2022-08-24T20:32:01.295Z,100190.56
2022-08-24T20:37:04.709Z,100205.13
2022-08-24T20:42:12.213Z,100204.41
2022-08-24T20:47:17.957Z,100202.16
2022-08-24T20:52:21.165Z,100203.06
2022-08-24T20:57:24.235Z,100209.38
2022-08-24T21:02:27.166Z,100203.25
2022-08-24T21:07:30.188Z,100208.06
2022-08-24T21:12:33.319Z,100211.03
2022-08-24T21:17:36.169Z,100218.31
2022-08-24T21:22:39.870Z,100226.88
2022-08-24T21:27:45.259Z,100207.00
2022-08-24T21:33:07.852Z,100206.25
2022-08-24T21:38:12.299Z,100208.56
2022-08-24T21:43:17.892Z,100203.84
2022-08-24T21:48:21.264Z,100200.66
2022-08-24T21:53:24.062Z,100199.84
2022-08-24T21:58:31.779Z,100200.34
2022-08-24T22:03:40.140Z,100200.59
2022-08-24T22:08:44.342Z,100209.09
2022-08-24T22:13:47.659Z,100215.38
2022-08-24T22:18:50.565Z,100219.78
2022-08-24T22:23:55.264Z,100219.41
2022-08-24T22:29:01.716Z,100211.41
2022-08-24T22:34:15.382Z,100209.75
2022-08-24T22:39:22.594Z,100201.53
2022-08-24T22:44:27.726Z,100193.53
2022-08-24T22:49:40.400Z,100185.88
2022-08-24T22:54:43.556Z,100178.09
2022-08-24T22:59:47.719Z,100173.97
2022-08-24T23:04:52.740Z,100162.97
2022-08-24T23:09:55.605Z,100161.56
2022-08-24T23:14:58.679Z,100162.81
2022-08-24T23:20:02.036Z,100162.38
2022-08-24T23:25:12.399Z,100162.38
2022-08-24T23:30:15.826Z,100162.97
2022-08-24T23:35:18.737Z,100156.56
2022-08-24T23:40:21.785Z,100155.34
2022-08-24T23:45:28.499Z,100149.34
2022-08-24T23:50:33.957Z,100153.50
2022-08-24T23:55:37.860Z,100156.50
